Time;durP1;ratioP1;P1;durP2;ratioP2;P2;SDS_P1;SDS_P2;PMS_P1;PMS_P2;Temp;Humidity;BMP_temperature;BMP_pressure;BME280_temperature;BME280_humidity;BME280_pressure;Samples;Min_cycle;Max_cycle;Signal;HPM_P1;HPM_P2
2023/06/11 00:02:15;;;;;;;1.52;1.00;;;21.80;99.90;;;;;;7406430;19;19922;-76
2023/06/11 00:04:45;;;;;;;1.27;1.17;;;21.50;99.90;;;;;;7406736;19;19932;-75
2023/06/11 00:07:14;;;;;;;2.70;0.90;;;21.50;99.90;;;;;;7406859;19;19915;-75
2023/06/11 00:09:46;;;;;;;1.80;1.17;;;21.60;99.90;;;;;;7406782;19;19937;-76
2023/06/11 00:12:15;;;;;;;1.33;1.10;;;21.50;99.90;;;;;;7406476;19;19922;-75
2023/06/11 00:14:46;;;;;;;;;;;21.50;99.90;;;;;;7408906;19;19923;-75
2023/06/11 00:17:15;;;;;;;2.38;1.23;;;21.30;99.90;;;;;;7405958;19;19942;-77
2023/06/11 00:19:45;;;;;;;1.25;0.90;;;21.20;99.90;;;;;;7405686;19;19919;-76
2023/06/11 00:22:26;;;;;;;1.63;0.93;;;21.30;99.90;;;;;;7407202;19;19919;-75
2023/06/11 00:24:58;;;;;;;2.83;1.23;;;21.10;99.90;;;;;;7404901;19;19954;-76
2023/06/11 00:27:27;;;;;;;1.58;1.05;;;21.10;99.90;;;;;;7406574;19;19982;-76
2023/06/11 00:29:57;;;;;;;2.38;1.02;;;21.10;99.90;;;;;;7406294;19;20319;-76
2023/06/11 00:32:26;;;;;;;1.48;1.02;;;21.00;99.90;;;;;;7405786;19;19980;-76
2023/06/11 00:34:55;;;;;;;1.42;1.10;;;21.20;99.90;;;;;;7404148;19;19914;-76
2023/06/11 00:37:24;;;;;;;1.48;1.25;;;21.10;99.90;;;;;;7404452;19;19990;-76
2023/06/11 00:39:53;;;;;;;1.77;1.17;;;21.00;99.90;;;;;;7405356;19;19922;-76
2023/06/11 00:42:34;;;;;;;1.90;1.00;;;21.00;99.90;;;;;;7405064;19;19956;-76
2023/06/11 00:45:04;;;;;;;1.33;1.10;;;20.80;99.90;;;;;;7405744;19;19922;-76
2023/06/11 00:47:33;;;;;;;1.63;1.05;;;20.80;99.90;;;;;;7405141;19;19919;-77
2023/06/11 00:50:03;;;;;;;1.55;1.17;;;20.90;99.90;;;;;;7405933;19;19993;-76
2023/06/11 00:52:33;;;;;;;1.42;1.02;;;20.70;99.90;;;;;;7405395;19;19922;-76
2023/06/11 00:55:02;;;;;;;1.35;1.10;;;20.80;99.90;;;;;;7404864;19;19926;-76
2023/06/11 00:57:53;;;;;;;1.10;1.00;;;20.60;99.90;;;;;;7404183;19;19926;-76
2023/06/11 01:00:22;;;;;;;1.63;0.90;;;20.70;99.90;;;;;;7405202;19;19974;-76
2023/06/11 01:02:57;;;;;;;1.45;1.10;;;20.60;99.90;;;;;;7403673;19;19919;-76
2023/06/11 01:05:42;;;;;;;2.22;1.20;;;20.60;99.90;;;;;;7404487;19;19929;-76
2023/06/11 01:08:17;;;;;;;1.23;0.95;;;20.50;99.90;;;;;;7404649;19;19954;-76
2023/06/11 01:10:47;;;;;;;1.27;1.10;;;20.40;99.90;;;;;;7403908;19;19962;-76
2023/06/11 01:13:26;;;;;;;1.73;1.15;;;20.50;99.90;;;;;;7405452;19;19926;-76
2023/06/11 01:16:03;;;;;;;1.52;1.15;;;20.20;99.90;;;;;;7404687;19;19988;-76
2023/06/11 01:18:58;;;;;;;1.45;1.33;;;20.30;99.90;;;;;;7403586;19;19926;-76
2023/06/11 01:21:45;;;;;;;1.35;1.00;;;20.10;99.90;;;;;;7403788;19;19927;-76
2023/06/11 01:24:22;;;;;;;1.02;1.00;;;20.20;99.90;;;;;;7404902;19;19923;-76
2023/06/11 01:27:21;;;;;;;1.58;1.00;;;20.10;99.90;;;;;;7402650;19;19922;-76
2023/06/11 01:29:55;;;;;;;1.30;1.10;;;20.20;99.90;;;;;;7405121;19;19926;-76
2023/06/11 01:32:28;;;;;;;0.98;0.93;;;20.00;99.90;;;;;;7404268;19;19949;-76
2023/06/11 01:35:03;;;;;;;1.33;1.23;;;20.00;99.90;;;;;;7403612;19;20325;-76
2023/06/11 01:37:32;;;;;;;1.67;1.17;;;20.00;99.90;;;;;;7402863;19;19970;-76
2023/06/11 01:40:02;;;;;;;1.83;1.10;;;19.90;99.90;;;;;;7403432;19;19930;-76
2023/06/11 01:42:33;;;;;;;1.52;1.20;;;19.70;99.90;;;;;;7402711;19;19931;-76
2023/06/11 01:45:06;;;;;;;1.25;1.15;;;19.70;99.90;;;;;;7404507;19;20340;-76
2023/06/11 01:47:34;;;;;;;1.40;1.30;;;19.70;99.90;;;;;;7403407;19;19942;-76
2023/06/11 01:50:04;;;;;;;1.20;1.10;;;19.50;99.90;;;;;;7404672;19;19910;-76
2023/06/11 01:52:33;;;;;;;1.75;1.15;;;19.50;99.90;;;;;;7402942;19;19918;-76
2023/06/11 01:55:15;;;;;;;1.88;1.15;;;19.50;99.90;;;;;;7404189;19;19984;-76
2023/06/11 01:57:46;;;;;;;1.45;1.20;;;19.30;99.90;;;;;;7403903;19;19932;-76
2023/06/11 02:00:18;;;;;;;1.55;1.45;;;19.50;99.90;;;;;;7402733;19;19959;-75
2023/06/11 02:02:50;;;;;;;1.33;1.23;;;19.40;99.90;;;;;;7403289;19;19918;-76
2023/06/11 02:05:20;;;;;;;1.23;1.10;;;19.30;99.90;;;;;;7402812;19;19912;-75
2023/06/11 02:08:04;;;;;;;1.40;1.30;;;19.20;99.90;;;;;;7402994;19;19914;-75
2023/06/11 02:10:33;;;;;;;1.50;1.25;;;19.40;99.90;;;;;;7401943;19;19946;-75
2023/06/11 02:13:02;;;;;;;1.45;1.10;;;19.20;99.90;;;;;;7402543;19;19926;-75
2023/06/11 02:15:34;;;;;;;1.70;1.25;;;19.10;99.90;;;;;;7402776;19;19927;-75
2023/06/11 02:18:24;;;;;;;1.20;1.10;;;19.10;99.90;;;;;;7400411;19;19925;-75
2023/06/11 02:20:53;;;;;;;2.08;1.42;;;19.20;99.90;;;;;;7401111;19;19914;-75
2023/06/11 02:23:23;;;;;;;2.13;1.30;;;19.20;99.90;;;;;;7404344;19;19926;-75
2023/06/11 02:25:52;;;;;;;1.42;1.33;;;19.00;99.90;;;;;;7408157;19;19927;-75
2023/06/11 02:28:21;;;;;;;1.40;1.20;;;18.60;99.90;;;;;;7406721;19;19914;-75
2023/06/11 02:30:53;;;;;;;1.30;1.20;;;19.10;99.90;;;;;;7408105;19;19946;-75
2023/06/11 02:33:29;;;;;;;1.42;1.33;;;18.90;99.90;;;;;;7407873;19;20331;-75
2023/06/11 02:35:59;;;;;;;1.70;1.17;;;19.00;99.90;;;;;;7409437;19;19914;-75
2023/06/11 02:38:28;;;;;;;1.40;1.30;;;18.80;99.90;;;;;;7406650;19;20354;-75
2023/06/11 02:40:57;;;;;;;1.40;1.30;;;18.80;99.90;;;;;;7408118;19;19974;-75
2023/06/11 02:43:29;;;;;;;1.70;1.27;;;18.80;99.90;;;;;;7408939;19;20308;-75
2023/06/11 02:46:01;;;;;;;1.45;1.30;;;18.80;99.90;;;;;;7409390;19;19918;-75
2023/06/11 02:48:30;;;;;;;1.30;1.20;;;18.70;99.90;;;;;;7408551;19;19943;-75
2023/06/11 02:51:00;;;;;;;1.30;1.15;;;18.60;99.90;;;;;;7408244;19;19928;-75
2023/06/11 02:53:29;;;;;;;1.70;1.42;;;19.20;99.90;;;;;;7408900;19;19910;-75
2023/06/11 02:56:01;;;;;;;2.67;1.15;;;18.60;99.90;;;;;;7406652;19;19922;-75
2023/06/11 02:58:31;;;;;;;2.03;1.35;;;18.60;99.90;;;;;;7409043;19;19922;-75
2023/06/11 03:01:03;;;;;;;1.50;1.17;;;18.50;99.90;;;;;;7409073;19;19928;-75
2023/06/11 03:03:32;;;;;;;2.08;1.23;;;18.30;99.90;;;;;;7407453;19;19926;-76
2023/06/11 03:06:01;;;;;;;1.48;1.10;;;18.50;99.90;;;;;;7408638;19;19970;-77
2023/06/11 03:08:36;;;;;;;1.50;1.40;;;18.50;99.90;;;;;;7407377;19;19918;-76
2023/06/11 03:11:05;;;;;;;2.13;1.15;;;18.50;99.90;;;;;;7407653;19;19990;-77
2023/06/11 03:13:34;;;;;;;1.42;1.33;;;18.30;99.90;;;;;;7407862;19;19933;-78
2023/06/11 03:16:08;;;;;;;1.63;1.20;;;18.60;99.90;;;;;;7408645;19;19934;-78
2023/06/11 03:18:38;;;;;;;2.33;1.27;;;18.30;99.90;;;;;;7408096;19;20285;-78
2023/06/11 03:21:07;;;;;;;2.95;1.60;;;18.40;99.90;;;;;;7407460;19;19922;-78
2023/06/11 03:23:36;;;;;;;1.58;1.30;;;18.20;99.90;;;;;;7406976;19;19907;-78
2023/06/11 03:26:05;;;;;;;1.52;1.42;;;18.30;99.90;;;;;;7407257;19;20256;-77
2023/06/11 03:28:34;;;;;;;1.60;1.30;;;18.40;99.90;;;;;;7407448;19;19926;-78
2023/06/11 03:31:26;;;;;;;1.63;1.30;;;18.30;99.90;;;;;;7405640;19;19918;-78
2023/06/11 03:33:57;;;;;;;1.33;1.20;;;18.20;99.90;;;;;;7406498;19;19934;-78
2023/06/11 03:36:27;;;;;;;2.33;1.60;;;18.20;99.90;;;;;;7407126;19;19943;-78
2023/06/11 03:38:56;;;;;;;1.80;1.63;;;18.20;99.90;;;;;;7407193;19;19922;-78
2023/06/11 03:41:25;;;;;;;1.58;1.45;;;18.00;99.90;;;;;;7405460;19;19924;-78
2023/06/11 03:43:54;;;;;;;1.48;1.38;;;18.00;99.90;;;;;;7407247;19;19926;-78
2023/06/11 03:46:26;;;;;;;1.60;1.35;;;18.00;99.90;;;;;;7406990;19;20351;-78
2023/06/11 03:49:00;;;;;;;1.63;1.52;;;18.00;99.90;;;;;;7407576;19;19915;-78
2023/06/11 03:51:49;;;;;;;1.50;1.33;;;18.00;99.90;;;;;;7406785;19;19914;-76
2023/06/11 03:54:18;;;;;;;1.50;1.40;;;18.20;99.90;;;;;;7407668;19;19939;-76
2023/06/11 03:56:47;;;;;;;1.65;1.55;;;18.00;99.90;;;;;;7407303;19;20439;-76
2023/06/11 03:59:36;;;;;;;1.52;1.40;;;18.00;99.90;;;;;;7405327;19;19918;-78
2023/06/11 04:02:08;;;;;;;2.35;1.70;;;18.10;99.90;;;;;;7405751;19;19922;-78
2023/06/11 04:04:51;;;;;;;3.42;1.60;;;18.00;99.90;;;;;;7406493;19;19926;-78
2023/06/11 04:07:21;;;;;;;1.77;1.60;;;18.10;99.90;;;;;;7407404;19;19915;-78
2023/06/11 04:10:00;;;;;;;1.88;1.38;;;18.00;99.90;;;;;;7406487;19;19922;-78
2023/06/11 04:12:29;;;;;;;1.70;1.60;;;18.00;99.90;;;;;;7404939;19;19919;-78
2023/06/11 04:14:58;;;;;;;1.50;1.40;;;18.10;99.90;;;;;;7406188;19;19931;-78
2023/06/11 04:17:30;;;;;;;4.10;1.70;;;18.10;99.90;;;;;;7404940;19;20623;-78
2023/06/11 04:20:05;;;;;;;1.33;1.20;;;18.20;99.90;;;;;;7406729;19;19923;-75
2023/06/11 04:22:44;;;;;;;1.52;1.42;;;18.10;99.90;;;;;;7404922;19;19935;-76
2023/06/11 04:25:16;;;;;;;1.58;1.42;;;18.40;99.90;;;;;;7406374;19;19966;-75
2023/06/11 04:27:57;;;;;;;1.40;1.30;;;18.20;99.90;;;;;;7405666;19;19978;-74
2023/06/11 04:30:26;;;;;;;1.40;1.30;;;18.10;99.90;;;;;;7406224;19;19946;-75
2023/06/11 04:33:03;;;;;;;1.40;1.30;;;18.30;99.90;;;;;;7406161;19;19914;-75
2023/06/11 04:35:34;;;;;;;1.48;1.10;;;18.30;99.90;;;;;;7403448;19;19950;-75
2023/06/11 04:38:04;;;;;;;1.50;1.40;;;18.20;99.90;;;;;;7404790;19;19926;-75
2023/06/11 04:40:34;;;;;;;1.40;1.20;;;18.30;99.90;;;;;;7404827;19;19925;-75
2023/06/11 04:43:07;;;;;;;1.42;1.33;;;18.20;99.90;;;;;;7404488;19;19944;-75
2023/06/11 04:45:36;;;;;;;1.40;1.30;;;18.10;99.90;;;;;;7403046;19;19942;-75
2023/06/11 04:48:10;;;;;;;1.40;1.30;;;18.30;99.90;;;;;;7404773;19;19915;-75
2023/06/11 04:50:39;;;;;;;4.03;1.50;;;18.40;99.90;;;;;;7404548;19;19914;-75
2023/06/11 04:53:12;;;;;;;1.40;1.30;;;18.40;99.90;;;;;;7405618;19;19928;-75
2023/06/11 04:55:42;;;;;;;1.95;1.10;;;18.40;99.90;;;;;;7402283;19;19918;-75
2023/06/11 04:58:12;;;;;;;1.75;1.65;;;18.40;99.90;;;;;;7406280;19;19918;-75
2023/06/11 05:00:42;;;;;;;1.35;1.25;;;18.50;99.90;;;;;;7404145;19;19918;-75
2023/06/11 05:03:16;;;;;;;;;;;18.50;99.90;;;;;;7406101;19;19915;-74
2023/06/11 05:05:51;;;;;;;1.48;1.38;;;18.60;99.90;;;;;;7404107;19;19914;-75
2023/06/11 05:08:21;;;;;;;1.30;1.17;;;18.60;99.90;;;;;;7405342;19;19978;-75
2023/06/11 05:10:51;;;;;;;1.50;1.40;;;18.50;99.90;;;;;;7405196;19;19986;-75
2023/06/11 05:13:24;;;;;;;1.60;1.20;;;18.60;99.90;;;;;;7402409;19;19929;-75
2023/06/11 05:15:54;;;;;;;1.50;1.10;;;18.70;99.90;;;;;;7404901;19;19929;-75
2023/06/11 05:18:27;;;;;;;1.63;1.00;;;18.70;99.90;;;;;;7404693;19;19977;-75
2023/06/11 05:20:57;;;;;;;1.50;1.40;;;18.70;99.90;;;;;;7404914;19;19927;-75
2023/06/11 05:23:29;;;;;;;1.83;1.33;;;18.50;99.90;;;;;;7402958;19;19918;-75
2023/06/11 05:26:01;;;;;;;1.50;1.40;;;18.60;99.90;;;;;;7403908;19;20033;-74
2023/06/11 05:28:33;;;;;;;1.20;1.10;;;18.80;99.90;;;;;;7403209;19;20344;-74
2023/06/11 05:31:17;;;;;;;1.33;1.08;;;18.60;99.90;;;;;;7402402;19;19953;-76
2023/06/11 05:33:49;;;;;;;1.70;1.35;;;18.50;99.90;;;;;;7403785;19;19990;-76
2023/06/11 05:36:18;;;;;;;1.58;1.40;;;18.90;99.90;;;;;;7402873;19;19946;-77
2023/06/11 05:38:52;;;;;;;2.55;1.08;;;18.90;99.90;;;;;;7404116;19;20359;-77
2023/06/11 05:41:21;;;;;;;1.20;1.10;;;18.70;99.90;;;;;;7404608;19;19915;-77
2023/06/11 05:43:50;;;;;;;1.30;1.20;;;18.90;99.90;;;;;;7404090;19;20344;-77
2023/06/11 05:46:26;;;;;;;1.25;1.00;;;19.00;99.90;;;;;;7402914;19;19922;-77
2023/06/11 05:48:58;;;;;;;1.40;1.30;;;19.00;99.90;;;;;;7402711;19;19926;-77
2023/06/11 05:51:37;;;;;;;2.30;1.30;;;18.90;99.90;;;;;;7403237;19;19918;-77
2023/06/11 05:54:07;;;;;;;1.13;1.02;;;18.90;99.90;;;;;;7403857;19;20348;-77
2023/06/11 05:56:36;;;;;;;1.60;1.00;;;19.20;99.90;;;;;;7403564;19;19927;-76
2023/06/11 05:59:25;;;;;;;1.63;1.25;;;19.00;99.90;;;;;;7407718;19;20255;-77
2023/06/11 06:02:14;;;;;;;1.50;1.10;;;19.20;99.90;;;;;;7407073;19;19918;-76
2023/06/11 06:05:07;;;;;;;2.92;1.25;;;19.20;99.90;;;;;;7408776;19;19921;-77
2023/06/11 06:07:56;;;;;;;1.48;1.38;;;19.10;99.90;;;;;;7407406;19;19982;-77
2023/06/11 06:10:38;;;;;;;2.78;1.10;;;19.20;99.90;;;;;;7407986;19;19915;-75
2023/06/11 06:13:07;;;;;;;2.47;1.27;;;19.10;99.90;;;;;;7409437;19;20368;-75
2023/06/11 06:15:36;;;;;;;2.05;1.00;;;19.30;99.90;;;;;;7407553;19;19915;-75
2023/06/11 06:18:07;;;;;;;1.48;1.10;;;19.30;99.90;;;;;;7409149;19;19978;-75
2023/06/11 06:20:40;;;;;;;2.15;1.25;;;19.30;99.90;;;;;;7407299;19;19926;-74
2023/06/11 06:23:10;;;;;;;1.50;1.02;;;19.50;99.90;;;;;;7407922;19;19918;-74
2023/06/11 06:25:54;;;;;;;2.10;1.23;;;19.70;99.90;;;;;;7407990;19;19931;-75
2023/06/11 06:28:23;;;;;;;1.77;1.00;;;19.40;99.90;;;;;;7410177;19;19923;-75
2023/06/11 06:30:52;;;;;;;2.03;1.35;;;19.60;99.90;;;;;;7408022;19;19917;-75
2023/06/11 06:33:24;;;;;;;1.52;1.02;;;19.70;99.90;;;;;;7409095;19;19919;-75
2023/06/11 06:35:56;;;;;;;1.10;1.00;;;20.30;99.90;;;;;;7408548;19;19931;-75
2023/06/11 06:38:25;;;;;;;2.35;1.17;;;19.70;99.90;;;;;;7407024;19;19926;-77
2023/06/11 06:41:04;;;;;;;3.33;1.30;;;19.80;99.90;;;;;;7408511;19;20360;-77
2023/06/11 06:43:33;;;;;;;1.27;1.17;;;19.80;99.90;;;;;;7406329;19;19938;-77
2023/06/11 06:46:02;;;;;;;1.85;1.20;;;19.90;99.90;;;;;;7408144;19;20883;-77
2023/06/11 06:48:31;;;;;;;2.35;1.20;;;20.00;99.90;;;;;;7407798;19;19923;-76
2023/06/11 06:51:03;;;;;;;3.78;1.20;;;19.90;99.90;;;;;;7409440;19;20249;-77
2023/06/11 06:53:32;;;;;;;1.77;1.23;;;19.90;99.90;;;;;;7407802;19;19926;-77
2023/06/11 06:56:02;;;;;;;1.25;1.05;;;20.10;99.90;;;;;;7407232;19;19922;-77
2023/06/11 06:58:31;;;;;;;0.93;0.93;;;20.10;99.90;;;;;;7407578;19;19978;-77
2023/06/11 07:01:00;;;;;;;1.38;1.08;;;20.20;99.90;;;;;;7407872;19;20355;-77
2023/06/11 07:03:30;;;;;;;1.13;1.02;;;20.10;99.90;;;;;;7406218;19;19914;-77
2023/06/11 07:06:05;;;;;;;3.65;1.30;;;20.20;99.90;;;;;;7407828;19;19914;-77
2023/06/11 07:08:37;;;;;;;1.40;1.30;;;20.20;99.90;;;;;;7407094;19;20336;-77
2023/06/11 07:11:06;;;;;;;1.67;1.15;;;20.60;99.90;;;;;;7409050;19;19914;-78
2023/06/11 07:13:36;;;;;;;1.10;1.00;;;20.30;99.90;;;;;;7407649;19;19918;-77
2023/06/11 07:16:05;;;;;;;1.75;0.90;;;20.30;99.90;;;;;;7408455;19;20270;-77
2023/06/11 07:18:36;;;;;;;1.73;1.30;;;20.40;99.90;;;;;;7407182;19;19990;-77
2023/06/11 07:21:09;;;;;;;1.80;1.30;;;20.50;99.90;;;;;;7408377;19;19922;-77
2023/06/11 07:23:39;;;;;;;1.20;1.10;;;20.50;99.90;;;;;;7406152;19;19921;-77
2023/06/11 07:26:10;;;;;;;1.95;1.15;;;20.70;99.90;;;;;;7406402;19;19922;-77
2023/06/11 07:28:39;;;;;;;1.50;1.10;;;20.70;99.90;;;;;;7407686;19;19929;-77
2023/06/11 07:31:12;;;;;;;2.08;1.20;;;20.70;99.90;;;;;;7406354;19;19922;-77
2023/06/11 07:33:42;;;;;;;1.30;0.95;;;20.70;99.90;;;;;;7408471;19;19935;-77
2023/06/11 07:36:14;;;;;;;1.45;1.30;;;20.90;99.90;;;;;;7407122;19;19979;-77
2023/06/11 07:38:44;;;;;;;1.35;1.08;;;21.00;99.90;;;;;;7405585;19;19919;-77
2023/06/11 07:41:13;;;;;;;1.20;1.10;;;21.00;99.90;;;;;;7406747;19;19978;-77
2023/06/11 07:43:42;;;;;;;1.17;1.08;;;21.10;99.90;;;;;;7405307;19;19922;-77
2023/06/11 07:46:11;;;;;;;1.10;1.00;;;21.10;99.90;;;;;;7405736;19;20344;-77
2023/06/11 07:48:41;;;;;;;4.22;1.38;;;21.10;99.90;;;;;;7407235;19;20348;-77
2023/06/11 07:51:14;;;;;;;1.17;1.08;;;21.20;99.90;;;;;;7406499;19;19911;-77
2023/06/11 07:53:45;;;;;;;1.52;1.33;;;21.20;99.90;;;;;;7407671;19;19922;-77
2023/06/11 07:56:14;;;;;;;1.23;1.13;;;21.20;99.90;;;;;;7406628;19;20309;-77
2023/06/11 07:58:43;;;;;;;2.78;1.48;;;21.50;99.90;;;;;;7407481;19;19923;-77
2023/06/11 08:01:12;;;;;;;1.10;1.00;;;21.50;99.90;;;;;;7406975;19;19915;-77
2023/06/11 08:03:42;;;;;;;2.20;1.23;;;21.60;99.90;;;;;;7405543;19;19918;-77
2023/06/11 08:06:13;;;;;;;1.23;1.05;;;21.60;99.90;;;;;;7406963;19;19923;-77
2023/06/11 08:08:42;;;;;;;2.10;1.10;;;21.60;99.90;;;;;;7404888;19;19926;-77
2023/06/11 08:11:12;;;;;;;2.00;1.35;;;21.80;99.90;;;;;;7407124;19;19915;-77
2023/06/11 08:13:44;;;;;;;2.58;1.35;;;21.80;99.90;;;;;;7405159;19;19954;-77
2023/06/11 08:16:15;;;;;;;1.55;1.30;;;21.90;99.90;;;;;;7406932;19;19950;-77
2023/06/11 08:18:47;;;;;;;2.38;1.17;;;22.00;99.90;;;;;;7406387;19;19970;-77
2023/06/11 08:21:20;;;;;;;1.40;1.10;;;22.10;99.90;;;;;;7404302;19;19911;-77
2023/06/11 08:23:51;;;;;;;2.78;1.30;;;22.30;99.90;;;;;;7404281;19;19930;-77
2023/06/11 08:26:21;;;;;;;1.77;1.05;;;22.30;99.90;;;;;;7405253;19;19928;-77
2023/06/11 08:28:50;;;;;;;1.58;1.30;;;22.20;99.90;;;;;;7406011;19;19922;-77
2023/06/11 08:31:21;;;;;;;1.10;1.00;;;22.30;99.90;;;;;;7406172;19;19974;-77
2023/06/11 08:33:50;;;;;;;1.55;1.33;;;22.50;99.90;;;;;;7405132;19;19937;-77
2023/06/11 08:36:23;;;;;;;1.45;1.30;;;22.30;99.90;;;;;;7406519;19;19925;-78
2023/06/11 08:38:52;;;;;;;2.75;1.17;;;22.60;99.90;;;;;;7405411;19;19919;-77
2023/06/11 08:41:23;;;;;;;2.22;1.30;;;22.70;99.90;;;;;;7406274;19;19918;-77
2023/06/11 08:43:52;;;;;;;1.25;1.15;;;22.60;99.90;;;;;;7403688;19;19926;-77
2023/06/11 08:46:25;;;;;;;1.67;1.20;;;22.90;99.90;;;;;;7405816;19;19927;-77
2023/06/11 08:49:00;;;;;;;1.63;1.20;;;22.80;99.90;;;;;;7405007;19;19940;-77
2023/06/11 08:51:38;;;;;;;1.50;1.23;;;22.80;99.90;;;;;;7406217;19;19962;-77
2023/06/11 08:54:11;;;;;;;2.47;1.10;;;23.10;99.90;;;;;;7405849;19;19919;-77
2023/06/11 08:56:41;;;;;;;1.50;1.25;;;23.10;99.90;;;;;;7406421;19;19915;-76
2023/06/11 08:59:12;;;;;;;3.28;1.20;;;23.20;99.90;;;;;;7405749;19;20377;-77
2023/06/11 09:01:42;;;;;;;2.42;1.10;;;23.10;99.90;;;;;;7405545;19;19958;-77
2023/06/11 09:04:11;;;;;;;1.40;1.10;;;23.50;99.90;;;;;;7404959;19;19935;-77
2023/06/11 09:06:51;;;;;;;1.33;1.23;;;23.40;99.90;;;;;;7405659;19;19986;-77
2023/06/11 09:09:22;;;;;;;1.20;1.10;;;23.50;99.90;;;;;;7405196;19;19926;-78
2023/06/11 09:11:51;;;;;;;1.27;1.17;;;23.60;99.90;;;;;;7404851;19;20404;-77
2023/06/11 09:14:20;;;;;;;1.75;1.30;;;23.90;99.90;;;;;;7405297;19;19928;-77
2023/06/11 09:16:50;;;;;;;2.13;1.10;;;23.90;99.90;;;;;;7404734;19;19915;-77
2023/06/11 09:19:20;;;;;;;0.98;0.93;;;24.00;99.90;;;;;;7404356;19;20427;-77
2023/06/11 09:21:55;;;;;;;0.95;0.95;;;24.00;99.90;;;;;;7403754;19;19951;-77
2023/06/11 09:24:27;;;;;;;;;;;24.00;99.90;;;;;;7405584;19;19935;-77
2023/06/11 09:26:58;;;;;;;1.10;0.90;;;24.20;99.90;;;;;;7405259;19;19915;-77
2023/06/11 09:29:29;;;;;;;1.10;1.00;;;24.20;99.90;;;;;;7405349;19;19917;-77
2023/06/11 09:32:08;;;;;;;;;;;24.30;99.90;;;;;;7405842;19;19926;-77
2023/06/11 09:34:37;;;;;;;1.40;1.02;;;24.50;99.90;;;;;;7403865;19;20269;-77
2023/06/11 09:37:13;;;;;;;1.40;1.10;;;24.60;99.90;;;;;;7403707;19;19914;-77
2023/06/11 09:39:45;;;;;;;1.70;1.20;;;24.60;99.90;;;;;;7403916;19;19982;-77
2023/06/11 09:42:26;;;;;;;2.03;1.23;;;24.70;99.90;;;;;;7403398;19;19914;-77
2023/06/11 09:45:00;;;;;;;1.15;1.05;;;25.00;99.90;;;;;;7402221;19;19929;-77
2023/06/11 09:47:31;;;;;;;1.30;1.15;;;25.00;99.90;;;;;;7405261;19;19919;-77
2023/06/11 09:50:01;;;;;;;0.80;0.77;;;25.10;99.90;;;;;;7403590;19;20269;-77
2023/06/11 09:52:33;;;;;;;1.20;1.10;;;25.20;99.90;;;;;;7403507;19;20276;-77
2023/06/11 09:55:08;;;;;;;1.20;1.10;;;25.40;99.90;;;;;;7402545;19;19921;-77
2023/06/11 09:57:39;;;;;;;2.15;1.13;;;25.30;99.90;;;;;;7403967;19;19926;-77
2023/06/11 10:00:12;;;;;;;1.42;1.33;;;25.40;99.90;;;;;;7403446;19;19910;-77
2023/06/11 10:02:41;;;;;;;1.10;1.00;;;25.50;99.90;;;;;;7402118;19;19914;-77
2023/06/11 10:05:12;;;;;;;1.48;1.38;;;25.50;99.90;;;;;;7400834;19;19988;-77
2023/06/11 10:07:47;;;;;;;;;;;25.60;99.90;;;;;;7405829;19;19915;-77
2023/06/11 10:10:19;;;;;;;1.50;1.10;;;25.70;99.90;;;;;;7402800;19;19918;-77
2023/06/11 10:12:52;;;;;;;1.77;1.10;;;25.90;99.90;;;;;;7402227;19;19923;-77
2023/06/11 10:15:25;;;;;;;1.17;1.05;;;25.90;99.90;;;;;;7400244;19;19918;-77
2023/06/11 10:17:57;;;;;;;1.80;0.82;;;26.30;99.90;;;;;;7402938;19;19932;-77
2023/06/11 10:20:31;;;;;;;1.90;1.13;;;26.20;99.90;;;;;;7402275;19;20281;-77
2023/06/11 10:23:14;;;;;;;1.20;1.10;;;26.20;99.90;;;;;;7403351;19;19951;-77
2023/06/11 10:25:45;;;;;;;1.73;1.20;;;26.50;99.90;;;;;;7401083;19;19978;-77
2023/06/11 10:28:22;;;;;;;1.20;1.10;;;26.50;99.90;;;;;;7399410;19;20350;-77
2023/06/11 10:30:55;;;;;;;1.65;1.15;;;26.70;99.90;;;;;;7402381;19;19918;-77
2023/06/11 10:33:36;;;;;;;;;;;26.70;99.90;;;;;;7404547;19;19915;-77
2023/06/11 10:36:06;;;;;;;1.40;1.13;;;27.00;99.60;;;;;;7402848;19;19922;-77
2023/06/11 10:38:40;;;;;;;2.25;0.98;;;27.00;99.90;;;;;;7400805;19;19930;-78
2023/06/11 10:41:11;;;;;;;1.15;1.05;;;27.10;99.90;;;;;;7400353;19;20279;-77
2023/06/11 10:43:41;;;;;;;1.40;1.30;;;27.10;99.90;;;;;;7399751;19;19922;-75
2023/06/11 10:46:12;;;;;;;3.53;1.10;;;27.20;99.80;;;;;;7407153;19;19934;-75
2023/06/11 10:48:52;;;;;;;1.48;1.15;;;27.30;99.90;;;;;;7407931;19;19914;-75
2023/06/11 10:51:22;;;;;;;1.50;1.15;;;27.60;98.90;;;;;;7407419;19;19918;-76
2023/06/11 10:54:02;;;;;;;1.90;0.80;;;27.50;98.90;;;;;;7408260;19;19942;-75
2023/06/11 10:56:32;;;;;;;2.40;1.20;;;27.70;98.90;;;;;;7406876;19;19918;-74
2023/06/11 10:59:01;;;;;;;1.23;1.13;;;27.80;98.70;;;;;;7408529;19;20018;-75
2023/06/11 11:01:31;;;;;;;1.13;1.02;;;28.10;98.50;;;;;;7408333;19;19918;-77
2023/06/11 11:04:11;;;;;;;1.42;1.00;;;28.20;98.40;;;;;;7407011;19;19941;-75
2023/06/11 11:06:43;;;;;;;2.25;1.20;;;28.10;98.00;;;;;;7407000;19;19911;-76
2023/06/11 11:09:15;;;;;;;1.90;1.20;;;28.20;97.80;;;;;;7407762;19;19918;-81
2023/06/11 11:11:44;;;;;;;1.50;1.20;;;28.20;97.80;;;;;;7408488;19;19923;-80
2023/06/11 11:14:14;;;;;;;1.17;1.08;;;28.30;97.60;;;;;;7407524;19;19925;-80
2023/06/11 11:16:45;;;;;;;0.88;0.88;;;28.50;97.40;;;;;;7408882;19;19950;-80
2023/06/11 11:19:14;;;;;;;1.17;1.08;;;28.50;97.30;;;;;;7408570;19;19929;-80
2023/06/11 11:21:44;;;;;;;1.45;1.33;;;28.60;96.80;;;;;;7408679;19;19926;-84
2023/06/11 11:24:16;;;;;;;0.93;0.90;;;28.70;96.70;;;;;;7408595;19;19955;-85
2023/06/11 11:26:46;;;;;;;1.02;1.00;;;28.90;96.70;;;;;;7409306;19;19910;-84
2023/06/11 11:29:15;;;;;;;2.22;1.27;;;28.90;96.70;;;;;;7410989;19;19927;-82
2023/06/11 11:31:47;;;;;;;1.52;0.93;;;29.00;96.20;;;;;;7409092;19;20273;-82
2023/06/11 11:34:17;;;;;;;1.42;1.10;;;29.30;96.20;;;;;;7409445;19;19918;-81
2023/06/11 11:36:48;;;;;;;1.20;1.10;;;29.10;95.40;;;;;;7408108;19;19918;-82
2023/06/11 11:39:19;;;;;;;1.63;1.10;;;29.40;95.30;;;;;;7407826;19;19919;-83
2023/06/11 11:41:59;;;;;;;2.17;1.08;;;29.40;95.30;;;;;;7407322;19;19939;-84
2023/06/11 11:44:34;;;;;;;1.63;1.20;;;29.30;95.40;;;;;;7405123;19;19930;-83
2023/06/11 11:47:23;;;;;;;1.75;1.30;;;29.30;95.00;;;;;;7407530;19;19923;-80
2023/06/11 11:50:18;;;;;;;2.30;1.00;;;29.40;94.90;;;;;;7407184;19;19919;-82
2023/06/11 11:52:48;;;;;;;1.15;1.05;;;29.40;95.10;;;;;;7408320;19;20328;-84
2023/06/11 11:55:30;;;;;;;1.45;0.90;;;29.40;95.00;;;;;;7408108;19;19931;-82
2023/06/11 11:58:07;;;;;;;1.23;1.10;;;29.70;94.60;;;;;;7407142;19;19919;-80
2023/06/11 12:00:52;;;;;;;1.10;1.00;;;29.90;95.00;;;;;;7406469;19;19932;-79
2023/06/11 12:03:32;;;;;;;1.00;0.93;;;30.30;94.60;;;;;;7407113;19;19922;-81
2023/06/11 12:06:03;;;;;;;1.20;1.10;;;30.30;94.20;;;;;;7406343;19;19926;-83
2023/06/11 12:08:50;;;;;;;1.58;1.10;;;30.20;93.50;;;;;;7406756;19;20614;-80
2023/06/11 12:11:22;;;;;;;1.42;1.00;;;30.10;93.20;;;;;;7407119;19;20309;-82
2023/06/11 12:13:51;;;;;;;1.17;0.95;;;29.70;92.80;;;;;;7406033;19;19921;-85
2023/06/11 12:16:24;;;;;;;1.25;1.15;;;29.50;93.20;;;;;;7407533;19;19929;-80
2023/06/11 12:18:55;;;;;;;1.95;1.10;;;29.30;93.00;;;;;;7406878;19;19914;-79
2023/06/11 12:21:24;;;;;;;2.45;1.15;;;29.40;93.50;;;;;;7406508;19;19917;-78
2023/06/11 12:23:53;;;;;;;1.50;1.10;;;29.50;93.70;;;;;;7407138;19;19925;-81
2023/06/11 12:26:27;;;;;;;2.50;1.40;;;29.50;93.70;;;;;;7406258;19;19915;-81
2023/06/11 12:28:58;;;;;;;1.40;1.30;;;29.40;93.60;;;;;;7406708;19;19926;-81
2023/06/11 12:31:48;;;;;;;1.20;1.10;;;29.50;93.40;;;;;;7405275;19;19956;-81
2023/06/11 12:34:37;;;;;;;1.85;1.10;;;29.80;92.80;;;;;;7402582;19;19926;-81
2023/06/11 12:37:28;;;;;;;1.77;1.10;;;30.40;92.40;;;;;;7405795;19;19926;-82
2023/06/11 12:40:17;;;;;;;2.63;1.20;;;30.60;92.40;;;;;;7406547;19;19914;-82
2023/06/11 12:43:10;;;;;;;1.20;1.10;;;31.00;92.50;;;;;;7404010;19;19918;-82
2023/06/11 12:45:59;;;;;;;2.55;1.70;;;30.60;92.40;;;;;;7403540;19;19914;-82
2023/06/11 12:48:48;;;;;;;2.70;1.30;;;30.40;92.70;;;;;;7404710;19;19926;-81
2023/06/11 12:51:38;;;;;;;1.40;1.30;;;30.10;92.60;;;;;;7405364;19;19939;-80
2023/06/11 12:54:28;;;;;;;1.40;1.02;;;30.40;92.80;;;;;;7403559;19;19911;-77
2023/06/11 12:57:17;;;;;;;1.33;1.23;;;30.30;92.50;;;;;;7403449;19;19919;-77
2023/06/11 13:00:14;;;;;;;1.30;1.20;;;30.40;92.90;;;;;;7402995;19;19989;-77
2023/06/11 13:03:19;;;;;;;0.98;0.95;;;30.60;92.60;;;;;;7403566;19;19928;-78
2023/06/11 13:06:09;;;;;;;1.30;1.20;;;30.80;92.40;;;;;;7400526;19;19926;-77
2023/06/11 13:09:04;;;;;;;1.92;1.13;;;31.50;92.40;;;;;;7402627;19;19946;-77
2023/06/11 13:11:54;;;;;;;1.15;1.05;;;30.80;92.30;;;;;;7402825;19;19914;-77
2023/06/11 13:14:48;;;;;;;1.20;1.10;;;30.90;92.60;;;;;;7402204;19;19929;-78
2023/06/11 13:17:40;;;;;;;2.25;1.10;;;31.10;91.90;;;;;;7403525;19;20257;-78
2023/06/11 13:20:31;;;;;;;1.77;1.13;;;30.50;92.30;;;;;;7402854;19;19915;-78
2023/06/11 13:23:25;;;;;;;2.47;1.23;;;31.00;92.10;;;;;;7403057;19;19919;-78